Bozoo, West Virginia
Current Conditions -  °F | °C
As of 6:55 AM on Friday 21 Nov 2014 (Local Time) from KPSK Reporting Station
Clear Clear  
Wind Chill: 15°   Ceiling: Unl
Heat Index: 25°   Visibility: 10mi
Dew Point: 15°   Wind: 10mph
Humidity: 66%   Direction: 300°WNW
Pressure: 30.3"   Gusts: 16mph
Location:  37.4216°N, 80.7343°W
Report Text: KPSK 211155Z AUTO 30009G14KT 10SM CLR M04/M09 A3030 RMK AO2 T10401095 10000 21042
Loading
Personal Weather Stations






























Interactive Weather Map New forecast layout! Learn more

10-Day Weather Forecast

Advertisements
Track Severe Weather on mobile